sensor_id;sensor_type;location;lat;lon;timestamp;pressure;altitude;pressure_sealevel;temperature;humidity
18533;BME280;9396;51.510;11.934;2023-02-19T00:00:09;100486.91;;;9.09;100.00
18533;BME280;9396;51.510;11.934;2023-02-19T00:02:40;100481.84;;;9.06;100.00
18533;BME280;9396;51.510;11.934;2023-02-19T00:05:08;100490.25;;;9.02;100.00
18533;BME280;9396;51.510;11.934;2023-02-19T00:07:35;100494.31;;;9.06;100.00
18533;BME280;9396;51.510;11.934;2023-02-19T00:10:02;100496.25;;;9.04;100.00
18533;BME280;9396;51.510;11.934;2023-02-19T00:12:28;100493.88;;;9.01;100.00
18533;BME280;9396;51.510;11.934;2023-02-19T00:14:55;100493.06;;;9.00;100.00
18533;BME280;9396;51.510;11.934;2023-02-19T00:17:22;100481.19;;;8.95;100.00
18533;BME280;9396;51.510;11.934;2023-02-19T00:19:50;100483.28;;;8.91;100.00
18533;BME280;9396;51.510;11.934;2023-02-19T00:22:17;100486.19;;;8.98;100.00
18533;BME280;9396;51.510;11.934;2023-02-19T00:24:44;100488.00;;;8.97;100.00
18533;BME280;9396;51.510;11.934;2023-02-19T00:27:10;100476.00;;;9.03;100.00
18533;BME280;9396;51.510;11.934;2023-02-19T00:29:37;100469.59;;;8.96;100.00
18533;BME280;9396;51.510;11.934;2023-02-19T00:32:04;100461.91;;;9.02;100.00
18533;BME280;9396;51.510;11.934;2023-02-19T00:34:30;100454.66;;;8.95;100.00
18533;BME280;9396;51.510;11.934;2023-02-19T00:36:58;100458.28;;;9.03;100.00
18533;BME280;9396;51.510;11.934;2023-02-19T00:39:25;100452.72;;;8.97;100.00
18533;BME280;9396;51.510;11.934;2023-02-19T00:41:52;100453.25;;;8.91;100.00
18533;BME280;9396;51.510;11.934;2023-02-19T00:44:18;100446.44;;;8.88;100.00
18533;BME280;9396;51.510;11.934;2023-02-19T00:46:46;100450.63;;;8.91;100.00
18533;BME280;9396;51.510;11.934;2023-02-19T00:49:16;100456.75;;;8.82;100.00
18533;BME280;9396;51.510;11.934;2023-02-19T00:51:43;100452.44;;;8.81;100.00
18533;BME280;9396;51.510;11.934;2023-02-19T00:54:12;100456.78;;;8.72;100.00
18533;BME280;9396;51.510;11.934;2023-02-19T00:56:38;100450.34;;;8.75;100.00
18533;BME280;9396;51.510;11.934;2023-02-19T00:59:05;100446.84;;;8.74;100.00
18533;BME280;9396;51.510;11.934;2023-02-19T01:01:32;100441.56;;;8.84;100.00
18533;BME280;9396;51.510;11.934;2023-02-19T01:03:59;100440.44;;;8.77;100.00
18533;BME280;9396;51.510;11.934;2023-02-19T01:06:25;100435.84;;;8.88;100.00
18533;BME280;9396;51.510;11.934;2023-02-19T01:08:54;100433.59;;;8.84;100.00
18533;BME280;9396;51.510;11.934;2023-02-19T01:11:23;100422.00;;;8.85;100.00
18533;BME280;9396;51.510;11.934;2023-02-19T01:13:49;100418.94;;;8.89;100.00
18533;BME280;9396;51.510;11.934;2023-02-19T01:16:18;100413.19;;;8.94;100.00
18533;BME280;9396;51.510;11.934;2023-02-19T01:18:45;100405.66;;;8.99;100.00
18533;BME280;9396;51.510;11.934;2023-02-19T01:21:15;100398.00;;;8.86;100.00
18533;BME280;9396;51.510;11.934;2023-02-19T01:23:42;100384.16;;;8.92;100.00
18533;BME280;9396;51.510;11.934;2023-02-19T01:26:11;100381.47;;;9.02;100.00
18533;BME280;9396;51.510;11.934;2023-02-19T01:28:40;100380.72;;;9.19;100.00
18533;BME280;9396;51.510;11.934;2023-02-19T01:31:10;100384.75;;;9.23;100.00
18533;BME280;9396;51.510;11.934;2023-02-19T01:33:37;100380.00;;;9.17;100.00
18533;BME280;9396;51.510;11.934;2023-02-19T01:36:05;100369.63;;;9.33;100.00
18533;BME280;9396;51.510;11.934;2023-02-19T01:38:32;100365.53;;;9.38;100.00
18533;BME280;9396;51.510;11.934;2023-02-19T01:41:01;100355.53;;;9.32;100.00
18533;BME280;9396;51.510;11.934;2023-02-19T01:43:28;100344.31;;;9.38;100.00
18533;BME280;9396;51.510;11.934;2023-02-19T01:45:58;100345.53;;;9.44;100.00
18533;BME280;9396;51.510;11.934;2023-02-19T01:48:26;100338.25;;;9.46;100.00
18533;BME280;9396;51.510;11.934;2023-02-19T01:50:56;100327.03;;;9.34;100.00
18533;BME280;9396;51.510;11.934;2023-02-19T01:53:29;100336.06;;;9.41;100.00
18533;BME280;9396;51.510;11.934;2023-02-19T01:56:00;100332.66;;;9.49;100.00
18533;BME280;9396;51.510;11.934;2023-02-19T01:58:31;100323.53;;;9.34;100.00
18533;BME280;9396;51.510;11.934;2023-02-19T02:01:05;100313.69;;;9.44;100.00
18533;BME280;9396;51.510;11.934;2023-02-19T02:03:33;100315.59;;;9.51;100.00
18533;BME280;9396;51.510;11.934;2023-02-19T02:06:04;100310.50;;;9.58;100.00
18533;BME280;9396;51.510;11.934;2023-02-19T02:08:31;100305.47;;;9.64;100.00
18533;BME280;9396;51.510;11.934;2023-02-19T02:11:16;100296.66;;;9.64;100.00
18533;BME280;9396;51.510;11.934;2023-02-19T02:13:43;100282.78;;;9.70;100.00
18533;BME280;9396;51.510;11.934;2023-02-19T02:16:20;100278.00;;;9.73;100.00
18533;BME280;9396;51.510;11.934;2023-02-19T02:18:58;100268.44;;;9.81;100.00
18533;BME280;9396;51.510;11.934;2023-02-19T02:21:46;100272.06;;;9.80;100.00
18533;BME280;9396;51.510;11.934;2023-02-19T02:27:21;100269.88;;;9.75;100.00
18533;BME280;9396;51.510;11.934;2023-02-19T02:30:18;100262.13;;;9.82;100.00
18533;BME280;9396;51.510;11.934;2023-02-19T02:32:53;100258.19;;;9.86;100.00
18533;BME280;9396;51.510;11.934;2023-02-19T02:35:25;100250.50;;;9.83;100.00
18533;BME280;9396;51.510;11.934;2023-02-19T02:37:56;100258.34;;;9.84;100.00
18533;BME280;9396;51.510;11.934;2023-02-19T02:40:25;100263.88;;;9.73;100.00
18533;BME280;9396;51.510;11.934;2023-02-19T02:42:51;100268.38;;;9.45;100.00
18533;BME280;9396;51.510;11.934;2023-02-19T02:45:28;100267.28;;;9.48;100.00
18533;BME280;9396;51.510;11.934;2023-02-19T02:48:08;100254.28;;;9.27;100.00
18533;BME280;9396;51.510;11.934;2023-02-19T02:50:40;100240.56;;;9.32;100.00
18533;BME280;9396;51.510;11.934;2023-02-19T02:53:12;100240.06;;;9.19;100.00
18533;BME280;9396;51.510;11.934;2023-02-19T02:55:57;100235.81;;;9.26;100.00
18533;BME280;9396;51.510;11.934;2023-02-19T02:58:26;100224.09;;;9.28;100.00
18533;BME280;9396;51.510;11.934;2023-02-19T03:00:57;100223.59;;;9.15;100.00
18533;BME280;9396;51.510;11.934;2023-02-19T03:03:44;100234.00;;;9.09;100.00
18533;BME280;9396;51.510;11.934;2023-02-19T03:06:16;100232.38;;;8.98;100.00
18533;BME280;9396;51.510;11.934;2023-02-19T03:08:47;100231.22;;;9.01;100.00
18533;BME280;9396;51.510;11.934;2023-02-19T03:11:16;100242.69;;;9.01;100.00
18533;BME280;9396;51.510;11.934;2023-02-19T03:14:05;100235.91;;;8.89;100.00
18533;BME280;9396;51.510;11.934;2023-02-19T03:16:57;100240.97;;;8.83;100.00
18533;BME280;9396;51.510;11.934;2023-02-19T03:19:46;100236.97;;;8.69;100.00
18533;BME280;9396;51.510;11.934;2023-02-19T03:22:17;100221.75;;;8.71;100.00
18533;BME280;9396;51.510;11.934;2023-02-19T03:24:48;100212.88;;;8.62;100.00
18533;BME280;9396;51.510;11.934;2023-02-19T03:27:35;100200.31;;;8.64;100.00
18533;BME280;9396;51.510;11.934;2023-02-19T03:30:07;100199.69;;;8.71;100.00
18533;BME280;9396;51.510;11.934;2023-02-19T03:32:39;100191.81;;;8.61;100.00
18533;BME280;9396;51.510;11.934;2023-02-19T03:35:10;100112.59;;;8.12;100.00
18533;BME280;9396;51.510;11.934;2023-02-19T03:37:41;100199.31;;;8.65;100.00
18533;BME280;9396;51.510;11.934;2023-02-19T03:40:10;100205.75;;;8.63;100.00
18533;BME280;9396;51.510;11.934;2023-02-19T03:42:42;100199.47;;;8.64;100.00
18533;BME280;9396;51.510;11.934;2023-02-19T03:45:24;100198.22;;;8.58;100.00
18533;BME280;9396;51.510;11.934;2023-02-19T03:48:00;100203.91;;;8.63;100.00
18533;BME280;9396;51.510;11.934;2023-02-19T03:50:35;100136.75;;;8.09;100.00
18533;BME280;9396;51.510;11.934;2023-02-19T03:53:11;100214.72;;;8.52;100.00
18533;BME280;9396;51.510;11.934;2023-02-19T03:55:49;100223.34;;;8.54;100.00
18533;BME280;9396;51.510;11.934;2023-02-19T03:58:24;100225.28;;;8.62;100.00
18533;BME280;9396;51.510;11.934;2023-02-19T04:00:54;100228.88;;;8.71;100.00
18533;BME280;9396;51.510;11.934;2023-02-19T04:03:30;100228.28;;;8.77;100.00
18533;BME280;9396;51.510;11.934;2023-02-19T04:06:02;100233.44;;;8.78;100.00
18533;BME280;9396;51.510;11.934;2023-02-19T04:08:33;100227.09;;;8.89;100.00
18533;BME280;9396;51.510;11.934;2023-02-19T04:11:01;100231.03;;;8.85;100.00
18533;BME280;9396;51.510;11.934;2023-02-19T04:13:30;100231.53;;;8.98;100.00
18533;BME280;9396;51.510;11.934;2023-02-19T04:16:01;100237.88;;;9.14;100.00
18533;BME280;9396;51.510;11.934;2023-02-19T04:18:35;100235.03;;;9.25;100.00
18533;BME280;9396;51.510;11.934;2023-02-19T04:21:04;100252.94;;;9.14;100.00
18533;BME280;9396;51.510;11.934;2023-02-19T04:23:35;100244.41;;;9.20;100.00
18533;BME280;9396;51.510;11.934;2023-02-19T04:26:03;100236.69;;;9.26;100.00
18533;BME280;9396;51.510;11.934;2023-02-19T04:28:32;100242.03;;;9.17;100.00
18533;BME280;9396;51.510;11.934;2023-02-19T04:30:59;100234.53;;;9.12;100.00
18533;BME280;9396;51.510;11.934;2023-02-19T04:33:26;100238.06;;;9.03;100.00
18533;BME280;9396;51.510;11.934;2023-02-19T04:35:54;100231.19;;;9.10;100.00
18533;BME280;9396;51.510;11.934;2023-02-19T04:38:20;100236.53;;;9.01;100.00
18533;BME280;9396;51.510;11.934;2023-02-19T04:40:47;100239.44;;;8.80;100.00
18533;BME280;9396;51.510;11.934;2023-02-19T04:43:15;100233.75;;;8.75;100.00
18533;BME280;9396;51.510;11.934;2023-02-19T04:45:42;100230.25;;;8.75;100.00
18533;BME280;9396;51.510;11.934;2023-02-19T04:48:09;100227.22;;;8.97;100.00
18533;BME280;9396;51.510;11.934;2023-02-19T04:50:36;100226.88;;;8.82;100.00
18533;BME280;9396;51.510;11.934;2023-02-19T04:53:05;100234.72;;;8.74;100.00
18533;BME280;9396;51.510;11.934;2023-02-19T04:55:35;100109.47;;;7.89;100.00
18533;BME280;9396;51.510;11.934;2023-02-19T04:58:02;100246.22;;;8.65;100.00
18533;BME280;9396;51.510;11.934;2023-02-19T05:00:28;100249.44;;;8.59;100.00
18533;BME280;9396;51.510;11.934;2023-02-19T05:02:55;100242.59;;;8.56;100.00
18533;BME280;9396;51.510;11.934;2023-02-19T05:05:22;100243.88;;;8.52;100.00
18533;BME280;9396;51.510;11.934;2023-02-19T05:07:48;100246.25;;;8.55;100.00
18533;BME280;9396;51.510;11.934;2023-02-19T05:10:16;100240.16;;;8.45;100.00
18533;BME280;9396;51.510;11.934;2023-02-19T05:12:43;100249.19;;;8.52;100.00
18533;BME280;9396;51.510;11.934;2023-02-19T05:15:09;100252.56;;;8.45;100.00
18533;BME280;9396;51.510;11.934;2023-02-19T05:17:36;100242.19;;;8.51;100.00
18533;BME280;9396;51.510;11.934;2023-02-19T05:20:03;100246.41;;;8.44;100.00
18533;BME280;9396;51.510;11.934;2023-02-19T05:22:30;100243.19;;;8.50;100.00
18533;BME280;9396;51.510;11.934;2023-02-19T05:24:56;100242.75;;;8.55;100.00
18533;BME280;9396;51.510;11.934;2023-02-19T05:27:24;100235.03;;;8.61;100.00
18533;BME280;9396;51.510;11.934;2023-02-19T05:29:51;100236.19;;;8.59;100.00
18533;BME280;9396;51.510;11.934;2023-02-19T05:32:17;100232.13;;;8.64;100.00
18533;BME280;9396;51.510;11.934;2023-02-19T05:34:44;100241.16;;;8.72;100.00
18533;BME280;9396;51.510;11.934;2023-02-19T05:37:11;100231.94;;;8.76;100.00
18533;BME280;9396;51.510;11.934;2023-02-19T05:39:37;100244.78;;;8.71;100.00
18533;BME280;9396;51.510;11.934;2023-02-19T05:42:04;100241.78;;;8.83;100.00
18533;BME280;9396;51.510;11.934;2023-02-19T05:44:32;100239.75;;;8.77;100.00
18533;BME280;9396;51.510;11.934;2023-02-19T05:46:58;100241.09;;;8.81;100.00
18533;BME280;9396;51.510;11.934;2023-02-19T05:49:25;100238.97;;;8.85;100.00
18533;BME280;9396;51.510;11.934;2023-02-19T05:51:52;100245.06;;;8.77;100.00
18533;BME280;9396;51.510;11.934;2023-02-19T05:54:18;100249.84;;;8.64;100.00
18533;BME280;9396;51.510;11.934;2023-02-19T05:56:45;100266.97;;;8.70;100.00
18533;BME280;9396;51.510;11.934;2023-02-19T05:59:15;100287.19;;;8.80;100.00
18533;BME280;9396;51.510;11.934;2023-02-19T06:01:44;100316.59;;;8.87;100.00
18533;BME280;9396;51.510;11.934;2023-02-19T06:04:11;100331.22;;;8.44;100.00
18533;BME280;9396;51.510;11.934;2023-02-19T06:06:39;100191.59;;;7.41;100.00
18533;BME280;9396;51.510;11.934;2023-02-19T06:09:06;100349.22;;;8.12;100.00
18533;BME280;9396;51.510;11.934;2023-02-19T06:11:32;100354.28;;;7.47;100.00
18533;BME280;9396;51.510;11.934;2023-02-19T06:13:59;100359.91;;;7.23;100.00
18533;BME280;9396;51.510;11.934;2023-02-19T06:16:26;100381.00;;;6.84;100.00
18533;BME280;9396;51.510;11.934;2023-02-19T06:18:55;100397.50;;;6.97;100.00
18533;BME280;9396;51.510;11.934;2023-02-19T06:21:21;100382.13;;;6.81;100.00
18533;BME280;9396;51.510;11.934;2023-02-19T06:23:48;100385.28;;;6.75;100.00
18533;BME280;9396;51.510;11.934;2023-02-19T06:26:16;100398.31;;;6.67;100.00
18533;BME280;9396;51.510;11.934;2023-02-19T06:28:43;100395.53;;;6.69;100.00
18533;BME280;9396;51.510;11.934;2023-02-19T06:31:11;100399.59;;;6.73;100.00
18533;BME280;9396;51.510;11.934;2023-02-19T06:33:39;100310.13;;;5.75;100.00
18533;BME280;9396;51.510;11.934;2023-02-19T06:36:10;100433.50;;;6.15;100.00
18533;BME280;9396;51.510;11.934;2023-02-19T06:38:38;100443.03;;;6.27;100.00
18533;BME280;9396;51.510;11.934;2023-02-19T06:41:05;100444.72;;;6.28;100.00
18533;BME280;9396;51.510;11.934;2023-02-19T06:43:33;100462.03;;;6.21;100.00
18533;BME280;9396;51.510;11.934;2023-02-19T06:46:00;100464.03;;;6.29;100.00
18533;BME280;9396;51.510;11.934;2023-02-19T06:48:28;100477.53;;;6.46;100.00
18533;BME280;9396;51.510;11.934;2023-02-19T06:50:56;100483.34;;;6.40;100.00
18533;BME280;9396;51.510;11.934;2023-02-19T06:53:24;100384.25;;;5.83;100.00
18533;BME280;9396;51.510;11.934;2023-02-19T06:55:57;100502.00;;;6.60;100.00
18533;BME280;9396;51.510;11.934;2023-02-19T06:58:23;100502.66;;;6.41;100.00
18533;BME280;9396;51.510;11.934;2023-02-19T07:00:50;100515.00;;;6.51;100.00
18533;BME280;9396;51.510;11.934;2023-02-19T07:03:17;100522.38;;;6.37;100.00
18533;BME280;9396;51.510;11.934;2023-02-19T07:05:43;100521.09;;;6.31;100.00
18533;BME280;9396;51.510;11.934;2023-02-19T07:08:10;100528.03;;;6.32;100.00
18533;BME280;9396;51.510;11.934;2023-02-19T07:10:38;100538.09;;;6.49;100.00
18533;BME280;9396;51.510;11.934;2023-02-19T07:13:04;100540.91;;;6.69;100.00
18533;BME280;9396;51.510;11.934;2023-02-19T07:15:31;100551.34;;;6.70;100.00
18533;BME280;9396;51.510;11.934;2023-02-19T07:17:58;100567.00;;;6.62;100.00
18533;BME280;9396;51.510;11.934;2023-02-19T07:20:24;100572.31;;;6.51;100.00
18533;BME280;9396;51.510;11.934;2023-02-19T07:22:51;100582.03;;;6.50;100.00
18533;BME280;9396;51.510;11.934;2023-02-19T07:25:17;100590.03;;;6.17;100.00
18533;BME280;9396;51.510;11.934;2023-02-19T07:27:45;100594.09;;;6.10;100.00
18533;BME280;9396;51.510;11.934;2023-02-19T07:30:12;100606.94;;;6.15;100.00
18533;BME280;9396;51.510;11.934;2023-02-19T07:32:40;100601.03;;;6.00;100.00
18533;BME280;9396;51.510;11.934;2023-02-19T07:35:06;100612.69;;;6.20;100.00
18533;BME280;9396;51.510;11.934;2023-02-19T07:37:33;100620.00;;;6.05;100.00
18533;BME280;9396;51.510;11.934;2023-02-19T07:40:00;100612.34;;;6.02;100.00
18533;BME280;9396;51.510;11.934;2023-02-19T07:42:27;100625.75;;;5.88;100.00
18533;BME280;9396;51.510;11.934;2023-02-19T07:44:54;100626.91;;;5.73;100.00
18533;BME280;9396;51.510;11.934;2023-02-19T07:47:21;100634.66;;;5.87;100.00
18533;BME280;9396;51.510;11.934;2023-02-19T07:49:48;100645.94;;;6.00;100.00
18533;BME280;9396;51.510;11.934;2023-02-19T07:52:14;100654.31;;;5.83;100.00
18533;BME280;9396;51.510;11.934;2023-02-19T07:54:41;100669.84;;;5.64;100.00
18533;BME280;9396;51.510;11.934;2023-02-19T07:57:07;100671.88;;;5.72;100.00
18533;BME280;9396;51.510;11.934;2023-02-19T07:59:34;100677.13;;;5.50;100.00
18533;BME280;9396;51.510;11.934;2023-02-19T08:02:02;100697.50;;;5.24;100.00
18533;BME280;9396;51.510;11.934;2023-02-19T08:04:46;100709.25;;;5.07;100.00
18533;BME280;9396;51.510;11.934;2023-02-19T08:07:12;100717.72;;;5.12;100.00
18533;BME280;9396;51.510;11.934;2023-02-19T08:09:39;100719.19;;;5.04;100.00
18533;BME280;9396;51.510;11.934;2023-02-19T08:12:08;100721.41;;;5.10;100.00
18533;BME280;9396;51.510;11.934;2023-02-19T08:14:53;100734.25;;;5.14;100.00
18533;BME280;9396;51.510;11.934;2023-02-19T08:17:22;100744.84;;;5.02;100.00
18533;BME280;9396;51.510;11.934;2023-02-19T08:19:48;100756.66;;;4.96;100.00
18533;BME280;9396;51.510;11.934;2023-02-19T08:22:15;100755.66;;;5.10;100.00
18533;BME280;9396;51.510;11.934;2023-02-19T08:24:41;100760.44;;;5.05;100.00
18533;BME280;9396;51.510;11.934;2023-02-19T08:27:09;100756.22;;;5.02;100.00
18533;BME280;9396;51.510;11.934;2023-02-19T08:29:35;100771.09;;;5.27;100.00
18533;BME280;9396;51.510;11.934;2023-02-19T08:32:02;100771.06;;;5.39;100.00
18533;BME280;9396;51.510;11.934;2023-02-19T08:34:30;100772.28;;;5.23;100.00
18533;BME280;9396;51.510;11.934;2023-02-19T08:36:57;100793.41;;;5.23;100.00
18533;BME280;9396;51.510;11.934;2023-02-19T08:39:25;100792.16;;;5.16;100.00
18533;BME280;9396;51.510;11.934;2023-02-19T08:41:51;100791.59;;;5.11;100.00
18533;BME280;9396;51.510;11.934;2023-02-19T08:44:18;100811.41;;;5.16;100.00
18533;BME280;9396;51.510;11.934;2023-02-19T08:46:45;100802.22;;;5.22;100.00
18533;BME280;9396;51.510;11.934;2023-02-19T08:49:11;100811.38;;;5.05;100.00
18533;BME280;9396;51.510;11.934;2023-02-19T08:51:39;100819.56;;;5.13;100.00
18533;BME280;9396;51.510;11.934;2023-02-19T08:54:06;100820.56;;;5.00;100.00
18533;BME280;9396;51.510;11.934;2023-02-19T08:56:32;100827.69;;;5.10;100.00
18533;BME280;9396;51.510;11.934;2023-02-19T08:58:59;100838.66;;;5.04;100.00
18533;BME280;9396;51.510;11.934;2023-02-19T09:01:25;100833.91;;;5.09;100.00
18533;BME280;9396;51.510;11.934;2023-02-19T09:03:52;100845.91;;;5.26;100.00
18533;BME280;9396;51.510;11.934;2023-02-19T09:06:19;100843.09;;;5.04;100.00
18533;BME280;9396;51.510;11.934;2023-02-19T09:08:47;100848.75;;;5.23;100.00
18533;BME280;9396;51.510;11.934;2023-02-19T09:11:14;100839.28;;;5.20;100.00
18533;BME280;9396;51.510;11.934;2023-02-19T09:13:41;100850.22;;;5.27;100.00
18533;BME280;9396;51.510;11.934;2023-02-19T09:16:08;100856.97;;;5.31;100.00
18533;BME280;9396;51.510;11.934;2023-02-19T09:18:35;100856.78;;;5.21;100.00
18533;BME280;9396;51.510;11.934;2023-02-19T09:21:04;100856.47;;;5.13;100.00
18533;BME280;9396;51.510;11.934;2023-02-19T09:23:31;100847.66;;;5.38;100.00
18533;BME280;9396;51.510;11.934;2023-02-19T09:26:00;100762.53;;;5.12;100.00
18533;BME280;9396;51.510;11.934;2023-02-19T09:28:27;100861.66;;;5.87;100.00
18533;BME280;9396;51.510;11.934;2023-02-19T09:30:54;100872.22;;;5.87;100.00
18533;BME280;9396;51.510;11.934;2023-02-19T09:33:21;100868.84;;;5.85;100.00
18533;BME280;9396;51.510;11.934;2023-02-19T09:35:47;100879.06;;;5.90;100.00
18533;BME280;9396;51.510;11.934;2023-02-19T09:38:14;100886.97;;;5.90;100.00
18533;BME280;9396;51.510;11.934;2023-02-19T09:40:40;100888.78;;;6.13;100.00
18533;BME280;9396;51.510;11.934;2023-02-19T09:43:14;100888.09;;;6.22;100.00
18533;BME280;9396;51.510;11.934;2023-02-19T09:45:42;100912.16;;;6.41;100.00
18533;BME280;9396;51.510;11.934;2023-02-19T09:48:10;100902.84;;;6.59;100.00
18533;BME280;9396;51.510;11.934;2023-02-19T09:50:41;100914.97;;;6.50;100.00
18533;BME280;9396;51.510;11.934;2023-02-19T09:53:14;100919.72;;;6.34;100.00
18533;BME280;9396;51.510;11.934;2023-02-19T09:55:42;100916.47;;;6.07;100.00
18533;BME280;9396;51.510;11.934;2023-02-19T09:58:21;100915.06;;;6.14;100.00
18533;BME280;9396;51.510;11.934;2023-02-19T10:00:52;100924.56;;;6.17;100.00
18533;BME280;9396;51.510;11.934;2023-02-19T10:03:22;100924.56;;;6.17;100.00
18533;BME280;9396;51.510;11.934;2023-02-19T10:05:55;100933.97;;;6.21;100.00
18533;BME280;9396;51.510;11.934;2023-02-19T10:08:22;100934.22;;;6.29;100.00
18533;BME280;9396;51.510;11.934;2023-02-19T10:10:48;100932.88;;;6.23;100.00
18533;BME280;9396;51.510;11.934;2023-02-19T10:13:20;100937.84;;;6.28;100.00
18533;BME280;9396;51.510;11.934;2023-02-19T10:15:49;100941.09;;;6.31;100.00
18533;BME280;9396;51.510;11.934;2023-02-19T10:18:18;100955.16;;;6.43;100.00
18533;BME280;9396;51.510;11.934;2023-02-19T10:20:46;100964.63;;;6.58;100.00
18533;BME280;9396;51.510;11.934;2023-02-19T10:23:14;100876.41;;;5.90;100.00
18533;BME280;9396;51.510;11.934;2023-02-19T10:25:45;100972.31;;;6.37;100.00
18533;BME280;9396;51.510;11.934;2023-02-19T10:28:14;100965.81;;;6.30;100.00
18533;BME280;9396;51.510;11.934;2023-02-19T10:30:44;100963.66;;;6.35;100.00
18533;BME280;9396;51.510;11.934;2023-02-19T10:33:14;100966.59;;;6.43;100.00
18533;BME280;9396;51.510;11.934;2023-02-19T10:35:52;100971.69;;;6.58;100.00
18533;BME280;9396;51.510;11.934;2023-02-19T10:38:20;100978.84;;;6.79;100.00
18533;BME280;9396;51.510;11.934;2023-02-19T10:40:49;100990.41;;;6.89;98.95
18533;BME280;9396;51.510;11.934;2023-02-19T10:43:21;101000.88;;;6.91;99.62
18533;BME280;9396;51.510;11.934;2023-02-19T10:45:57;101006.00;;;7.05;95.99
18533;BME280;9396;51.510;11.934;2023-02-19T10:48:28;101006.59;;;6.74;95.30
18533;BME280;9396;51.510;11.934;2023-02-19T10:50:59;101013.53;;;6.64;95.44
18533;BME280;9396;51.510;11.934;2023-02-19T10:53:41;101016.97;;;6.53;95.72
18533;BME280;9396;51.510;11.934;2023-02-19T10:56:09;101018.75;;;6.53;95.56
18533;BME280;9396;51.510;11.934;2023-02-19T10:58:38;101016.63;;;6.58;96.53
18533;BME280;9396;51.510;11.934;2023-02-19T11:01:13;101017.97;;;6.63;95.11
18533;BME280;9396;51.510;11.934;2023-02-19T11:03:40;101020.72;;;6.62;94.46
18533;BME280;9396;51.510;11.934;2023-02-19T11:06:09;100968.44;;;6.30;93.43
18533;BME280;9396;51.510;11.934;2023-02-19T11:08:46;101020.25;;;6.68;94.58
18533;BME280;9396;51.510;11.934;2023-02-19T11:11:25;101029.03;;;6.44;91.82
18533;BME280;9396;51.510;11.934;2023-02-19T11:13:53;101041.03;;;6.61;93.13
18533;BME280;9396;51.510;11.934;2023-02-19T11:16:22;101048.78;;;6.75;93.65
18533;BME280;9396;51.510;11.934;2023-02-19T11:18:53;101041.28;;;6.93;93.26
18533;BME280;9396;51.510;11.934;2023-02-19T11:21:25;101053.06;;;7.00;92.42
18533;BME280;9396;51.510;11.934;2023-02-19T11:23:57;101052.75;;;7.04;92.73
18533;BME280;9396;51.510;11.934;2023-02-19T11:26:26;101056.84;;;7.08;93.33
18533;BME280;9396;51.510;11.934;2023-02-19T11:28:58;101066.88;;;7.27;93.35
18533;BME280;9396;51.510;11.934;2023-02-19T11:31:27;101078.44;;;7.26;92.32
18533;BME280;9396;51.510;11.934;2023-02-19T11:33:56;101070.84;;;7.32;92.29
18533;BME280;9396;51.510;11.934;2023-02-19T11:36:25;101072.53;;;7.22;92.66
18533;BME280;9396;51.510;11.934;2023-02-19T11:38:53;101073.13;;;7.26;93.53
18533;BME280;9396;51.510;11.934;2023-02-19T11:41:40;101071.91;;;7.30;90.23
18533;BME280;9396;51.510;11.934;2023-02-19T11:44:20;101069.31;;;7.41;93.36
18533;BME280;9396;51.510;11.934;2023-02-19T11:47:02;101062.00;;;7.55;94.47
18533;BME280;9396;51.510;11.934;2023-02-19T11:49:38;101056.94;;;7.52;91.96
18533;BME280;9396;51.510;11.934;2023-02-19T11:52:18;101062.59;;;7.48;89.74
18533;BME280;9396;51.510;11.934;2023-02-19T11:54:53;101057.50;;;7.34;90.92
18533;BME280;9396;51.510;11.934;2023-02-19T11:57:37;101071.75;;;7.44;90.44
18533;BME280;9396;51.510;11.934;2023-02-19T12:00:17;101052.97;;;7.47;88.56
18533;BME280;9396;51.510;11.934;2023-02-19T12:03:23;101070.25;;;7.29;89.33
18533;BME280;9396;51.510;11.934;2023-02-19T12:06:17;101078.72;;;7.10;87.42
18533;BME280;9396;51.510;11.934;2023-02-19T12:09:06;101082.41;;;6.97;87.57
18533;BME280;9396;51.510;11.934;2023-02-19T12:11:48;101083.91;;;7.12;89.26
18533;BME280;9396;51.510;11.934;2023-02-19T12:14:47;101075.66;;;6.93;90.78
18533;BME280;9396;51.510;11.934;2023-02-19T12:17:30;101074.53;;;7.08;92.23
18533;BME280;9396;51.510;11.934;2023-02-19T12:20:13;101066.75;;;7.28;93.29
18533;BME280;9396;51.510;11.934;2023-02-19T12:22:50;101069.88;;;7.33;91.07
18533;BME280;9396;51.510;11.934;2023-02-19T12:25:36;101068.91;;;7.23;91.27
18533;BME280;9396;51.510;11.934;2023-02-19T12:28:22;101070.66;;;7.46;92.89
18533;BME280;9396;51.510;11.934;2023-02-19T12:31:05;101077.16;;;7.53;90.05
18533;BME280;9396;51.510;11.934;2023-02-19T12:34:17;101086.88;;;7.53;88.32
18533;BME280;9396;51.510;11.934;2023-02-19T12:36:57;101095.97;;;7.62;87.63
18533;BME280;9396;51.510;11.934;2023-02-19T12:39:33;101086.56;;;7.69;87.94
18533;BME280;9396;51.510;11.934;2023-02-19T12:42:10;101092.59;;;7.82;90.06
18533;BME280;9396;51.510;11.934;2023-02-19T12:44:44;101106.56;;;7.84;88.19
18533;BME280;9396;51.510;11.934;2023-02-19T12:47:17;100969.06;;;6.92;88.94
18533;BME280;9396;51.510;11.934;2023-02-19T12:49:48;101115.44;;;7.60;85.59
18533;BME280;9396;51.510;11.934;2023-02-19T12:52:19;101114.09;;;7.55;85.46
18533;BME280;9396;51.510;11.934;2023-02-19T12:54:51;101109.91;;;7.64;86.80
18533;BME280;9396;51.510;11.934;2023-02-19T12:57:21;101102.22;;;7.83;86.34
18533;BME280;9396;51.510;11.934;2023-02-19T12:59:53;101095.72;;;7.76;88.70
18533;BME280;9396;51.510;11.934;2023-02-19T13:02:26;101079.56;;;7.68;86.30
18533;BME280;9396;51.510;11.934;2023-02-19T13:05:00;101097.66;;;7.74;88.84
18533;BME280;9396;51.510;11.934;2023-02-19T13:07:34;101084.66;;;7.71;84.77
18533;BME280;9396;51.510;11.934;2023-02-19T13:10:06;101100.19;;;7.86;87.90
18533;BME280;9396;51.510;11.934;2023-02-19T13:12:42;101100.66;;;7.80;85.23